METAR Data
IDs: Format: Raw Decoded Include TAF

Data at: 0155 UTC 29 Nov 2020

METAR for:KAXA (Algona Muni, IA, US)
Text:KAXA 290135Z AUTO 22008KT 10SM CLR 03/02 A2993 RMK A01
Temperature: 3.0°C ( 37°F)
Dewpoint: 2.0°C ( 36°F) [RH = 93%]
Pressure (altimeter):29.93 inches Hg (1013.6 mb)
Winds:from the SW (220 degrees) at 9 MPH (8 knots; 4.1 m/s)
Visibility:10 or more sm (16+ km)
Ceiling:at least 12,000 feet AGL
Clouds:sky clear below 12,000 feet AGL
QC Flag:automated observation with no human augmentation